Kuala Lumpur International Airport
WMKK : now visible

Airfield :











YOU CAN JOIN US ON...

 
LOGIN :

Register | Disclaimer

   EN    FR    IT 

 









Legend :    VFR   Marginal VFR   IFR   Intensive IFR   Very Intensive IFR
Visi :
Ceiling :
>= 8 km
>= 3000ft
5 to 8 km
1000 to 3000 ft
1500m to 5 km
500 to 1000 ft
800 to 1500m
200 to 500 ft
< 800m
< 200 ft
Symbols :   Thunderstorms  Fog  Heavy snow  Heavy precipitations  Wind > 20 kt







- Airport Elevation : 69 ft
- IATA code : KUL


WMKK - Kuala Lumpur International

CURRENT METAR :
  • 210700Z 11005KT 030V190 9999 SCT018 SCT140 BKN280 34/22 Q1011 NOSIG

EXPIRED METARs :
  • 210630Z VRB05KT 9999 SCT018 SCT140 BKN280 34/22 Q1011 NOSIG
  • 210600Z 10008KT 050V160 9999 SCT018 SCT140 BKN280 34/22 Q1012 NOSIG
  • 210530Z 06009KT 340V120 9999 SCT018 SCT140 BKN280 34/22 Q1013 NOSIG
  • 210500Z 06008KT 020V140 9999 FEW017CB SCT018 BKN280 33/23 Q1013 NOSIG
  • 210430Z 05008KT 360V100 9999 FEW017CB SCT018 BKN280 33/23 Q1014 NOSIG

TAF TAF WMKK
Valid from the 21 at 06:00 until the 22 at 12:00 UTC


210500Z 2106/2212 22005KT 9999 FEW017CB
TEMPO 2109/2113 32005KT 4000 TSRA FEW017CB
BECMG 2115/2116 VRB03KT FEW030
BECMG 2118/2119 8000 FEW017CB
BECMG 2200/2202 VRB03KT FEW018
WMFC FIR / Asia



MET'MAP, your aeronautical weather chart ! - Copyright ORBIFLY December 2007 - Disclaimer

ORBIFLY MET'MAP TEAM :

Programming & Development : Alexandra Zaïnal
Concept & Development : Baudouin d'Aumeries
Co-Development & Prog : Marc-Olivier Méhu
Technical & hardware support : Manuel Goepfert

Contact : metmap@orbifly.com




SOURCES & CREDITS :

   NOAA       Earth
Advisory